Time;durP1;ratioP1;P1;durP2;ratioP2;P2;SDS_P1;SDS_P2;PMS_P1;PMS_P2;Temp;Humidity;BMP_temperature;BMP_pressure;BME280_temperature;BME280_humidity;BME280_pressure;Samples;Min_cycle;Max_cycle;Signal;HPM_P1;HPM_P2
2022/05/21 00:01:26;;;;;;;6.50;4.47;;;;;;;19.31;70.65;99637.16;2120508;83;32075;-69
2022/05/21 00:04:28;;;;;;;6.47;4.67;;;;;;;19.27;70.76;99651.55;2120801;83;33357;-72
2022/05/21 00:07:30;;;;;;;8.25;4.75;;;;;;;19.23;70.84;99656.08;2120679;83;30096;-69
2022/05/21 00:10:33;;;;;;;11.88;4.53;;;;;;;19.19;70.83;99631.57;2120773;83;27755;-73
2022/05/21 00:13:35;;;;;;;5.60;4.70;;;;;;;19.17;70.94;99648.51;2120543;84;28860;-67
2022/05/21 00:16:37;;;;;;;8.88;4.60;;;;;;;19.11;70.70;99652.16;2051726;86;31843;-69
2022/05/21 00:19:39;;;;;;;5.87;4.83;;;;;;;19.10;70.93;99650.96;2051485;86;33880;-67
2022/05/21 00:22:41;;;;;;;5.80;4.60;;;;;;;19.08;71.08;99653.84;2051641;86;29557;-69
2022/05/21 00:25:45;;;;;;;5.17;4.45;;;;;;;19.06;71.17;99636.84;2051470;86;27741;-68
2022/05/21 00:28:49;;;;;;;16.00;4.87;;;;;;;19.05;71.42;99654.12;2087725;85;28689;-68
2022/05/21 00:31:51;;;;;;;12.63;5.17;;;;;;;19.03;71.22;99647.98;2121084;83;31026;-69
2022/05/21 00:34:53;;;;;;;5.97;4.35;;;;;;;19.02;71.30;99650.34;2097815;83;32953;-69
2022/05/21 00:37:56;;;;;;;5.80;4.70;;;;;;;19.02;71.27;99661.72;2051589;86;30111;-68
2022/05/21 00:40:58;;;;;;;6.03;3.75;;;;;;;18.98;71.42;99659.78;2120878;83;27666;-67
2022/05/21 00:44:02;;;;;;;5.62;4.40;;;;;;;18.93;71.39;99672.41;2120766;83;28630;-69
2022/05/21 00:47:05;;;;;;;8.18;4.37;;;;;;;18.90;71.33;99675.92;2121015;83;31109;-69
2022/05/21 00:50:10;;;;;;;9.08;5.37;;;;;;;18.86;71.49;99679.92;2120846;83;32984;-68
2022/05/21 00:53:13;;;;;;;6.83;4.78;;;;;;;18.80;71.62;99661.00;2120877;83;29931;-68
2022/05/21 00:56:15;;;;;;;7.40;4.60;;;;;;;18.76;71.66;99670.43;2120972;83;27617;-68
2022/05/21 01:02:56;;;;;;;7.55;4.15;;;;;;;18.65;71.91;99675.02;2120602;83;31057;-69
2022/05/21 01:05:59;;;;;;;10.25;3.85;;;;;;;18.61;72.10;99687.67;2120789;83;33043;-67
2022/05/21 01:09:02;;;;;;;5.17;3.50;;;;;;;18.58;72.16;99696.09;2120907;83;29955;-68
2022/05/21 01:12:07;;;;;;;5.25;3.90;;;;;;;18.57;72.29;99683.01;2121710;83;27708;-67
2022/05/21 01:15:12;;;;;;;;;;;;;;;18.56;72.36;99686.72;2125129;83;28879;-67
2022/05/21 01:18:14;;;;;;;5.80;3.73;;;;;;;18.57;72.55;99687.59;2122569;83;31154;-67
2022/05/21 01:21:16;;;;;;;7.60;4.22;;;;;;;18.55;72.57;99689.59;2083373;85;32963;-67
2022/05/21 01:24:18;;;;;;;8.73;4.17;;;;;;;18.57;72.64;99687.59;2084093;85;29316;-66
2022/05/21 01:27:20;;;;;;;7.55;3.62;;;;;;;18.58;72.71;99695.58;2083627;85;27717;-66
2022/05/21 01:30:26;;;;;;;4.95;4.12;;;;;;;18.61;72.88;99698.01;2077729;85;29628;-66
2022/05/21 01:33:36;;;;;;;6.55;3.58;;;;;;;18.63;72.81;99703.28;2047463;87;31014;-66
2022/05/21 01:36:37;;;;;;;6.05;4.05;;;;;;;18.66;72.88;99698.44;2098295;84;33759;-67
2022/05/21 01:39:39;;;;;;;5.47;4.60;;;;;;;18.67;72.91;99701.52;2098405;84;30318;-66
2022/05/21 01:42:41;;;;;;;7.17;4.00;;;;;;;18.66;72.86;99701.16;2104377;83;27750;-66
2022/05/21 01:45:43;;;;;;;4.42;3.60;;;;;;;18.64;72.70;99708.58;2104823;84;28664;-67
2022/05/21 01:48:45;;;;;;;5.17;3.30;;;;;;;18.59;72.69;99701.88;2104443;84;31989;-67
2022/05/21 01:51:47;;;;;;;4.75;3.62;;;;;;;18.56;72.81;99700.80;2100469;84;33887;-67
2022/05/21 01:54:49;;;;;;;4.47;3.12;;;;;;;18.53;72.83;99703.31;2098114;84;29484;-66
2022/05/21 01:57:51;;;;;;;5.62;3.25;;;;;;;18.54;72.77;99703.63;2098464;84;27711;-66
2022/05/21 02:00:54;;;;;;;4.50;3.15;;;;;;;18.52;72.84;99698.36;2100296;84;29478;-66
2022/05/21 02:03:56;;;;;;;10.23;3.50;;;;;;;18.50;72.80;99699.00;2104935;84;31062;-66
2022/05/21 02:06:58;;;;;;;6.22;3.10;;;;;;;18.49;72.67;99710.84;2105119;84;32942;-68
2022/05/21 02:10:00;;;;;;;5.92;3.45;;;;;;;18.48;72.60;99721.86;2104900;84;29316;-67
2022/05/21 02:13:02;;;;;;;3.90;3.22;;;;;;;18.45;72.55;99722.97;2098026;84;27730;-67
2022/05/21 02:16:04;;;;;;;8.65;2.90;;;;;;;18.42;72.70;99727.34;2047800;86;28684;-66
2022/05/21 02:19:07;;;;;;;5.65;3.12;;;;;;;18.44;72.72;99740.76;2083093;85;30925;-67
2022/05/21 02:22:09;;;;;;;3.30;2.70;;;;;;;18.45;72.67;99748.74;2083770;85;33757;-66
2022/05/21 02:25:14;;;;;;;4.25;2.92;;;;;;;18.48;72.65;99733.55;2047843;86;30100;-66
2022/05/21 02:28:15;;;;;;;5.05;3.25;;;;;;;18.52;72.44;99739.57;2048391;86;27533;-65
2022/05/21 02:31:17;;;;;;;6.80;3.08;;;;;;;18.55;72.39;99756.05;2047541;86;28707;-67
2022/05/21 02:34:19;;;;;;;4.90;3.60;;;;;;;18.56;72.22;99762.67;2098334;83;31001;-66
2022/05/21 02:40:41;;;;;;;3.47;3.17;;;;;;;18.56;71.96;99771.33;2099262;84;29368;-66
2022/05/21 02:43:43;;;;;;;4.80;3.62;;;;;;;18.53;71.99;99770.61;2104915;84;27632;-65
2022/05/21 02:46:45;;;;;;;4.00;3.05;;;;;;;18.53;71.79;99785.53;2104778;84;28645;-65
2022/05/21 02:49:46;;;;;;;5.83;3.40;;;;;;;18.54;71.77;99786.38;2104877;84;31184;-66
2022/05/21 02:52:49;;;;;;;4.33;3.62;;;;;;;18.56;71.60;99793.88;2098999;84;32926;-64
2022/05/21 02:55:53;;;;;;;5.03;3.70;;;;;;;18.57;71.65;99798.30;2098196;84;29392;-64
2022/05/21 02:58:54;;;;;;;4.80;3.87;;;;;;;18.57;71.49;99794.23;2047762;86;27821;-65
2022/05/21 03:01:56;;;;;;;6.45;4.58;;;;;;;18.57;71.43;99812.38;2071142;85;29106;-66
2022/05/21 03:04:58;;;;;;;6.17;4.35;;;;;;;18.55;71.40;99817.92;2049261;86;32019;-66
2022/05/21 03:10:20;;;;;;;7.78;4.30;;;;;;;18.50;71.21;99806.66;2049264;86;32966;-66
2022/05/21 03:11:04;;;;;;;5.75;4.08;;;;;;;18.48;71.37;99812.20;2045698;85;30054;-66
2022/05/21 03:14:06;;;;;;;6.25;3.62;;;;;;;18.44;71.20;99809.92;2142642;83;27662;-65
2022/05/21 03:17:08;;;;;;;3.98;3.02;;;;;;;18.41;70.78;99823.27;2142746;83;28740;-65
2022/05/21 03:20:13;;;;;;;4.05;3.05;;;;;;;18.35;70.16;99831.95;2142621;83;31659;-64
2022/05/21 03:23:14;;;;;;;;;;;;;;;18.27;69.50;99842.64;2145257;83;33182;-66
2022/05/21 03:26:16;;;;;;;4.58;1.90;;;;;;;18.17;68.75;99848.87;2142701;83;29322;-65
2022/05/21 03:29:19;;;;;;;7.87;1.90;;;;;;;18.08;67.93;99857.84;2141560;83;27672;-65
2022/05/21 03:32:21;;;;;;;3.92;1.57;;;;;;;18.02;67.61;99840.27;2136444;83;29379;-65
2022/05/21 03:35:24;;;;;;;2.98;1.57;;;;;;;17.96;67.06;99847.55;2136265;83;30990;-64
2022/05/21 03:38:26;;;;;;;17.95;1.77;;;;;;;17.87;66.17;99857.85;2136295;83;33753;-66
2022/05/21 03:41:29;;;;;;;5.45;1.47;;;;;;;17.79;65.77;99850.88;2108432;83;30118;-65
2022/05/21 03:44:31;;;;;;;5.47;1.60;;;;;;;17.71;65.19;99874.06;2084268;85;27727;-66
2022/05/21 03:47:33;;;;;;;5.03;1.10;;;;;;;17.64;65.06;99889.14;2084224;85;28620;-66
2022/05/21 03:50:35;;;;;;;1.22;0.95;;;;;;;17.58;64.90;99901.37;2083911;85;31131;-67
2022/05/21 03:53:37;;;;;;;4.42;0.98;;;;;;;17.51;64.69;99902.87;2083810;85;33720;-65
2022/05/21 03:56:40;;;;;;;1.30;0.72;;;;;;;17.45;64.27;99912.38;2083819;85;28779;-64
2022/05/21 03:59:43;;;;;;;8.18;1.10;;;;;;;17.39;63.89;99914.25;2083989;85;27706;-66
2022/05/21 04:02:46;;;;;;;2.20;0.80;;;;;;;17.29;63.28;99918.22;2084441;85;28716;-65
2022/05/21 04:05:49;;;;;;;0.65;0.65;;;;;;;17.24;63.38;99913.71;2084400;85;31049;-67
2022/05/21 04:08:52;;;;;;;2.25;0.93;;;;;;;17.23;63.31;99916.05;2083976;85;32973;-64
2022/05/21 04:11:56;;;;;;;5.78;0.80;;;;;;;17.24;63.30;99919.60;2080485;85;29340;-64
2022/05/21 04:14:58;;;;;;;0.82;0.53;;;;;;;17.20;63.00;99924.42;2068899;86;27649;-64
2022/05/21 04:18:01;;;;;;;3.60;0.90;;;;;;;17.19;63.28;99935.39;2068846;85;28671;-65
2022/05/21 04:21:04;;;;;;;2.52;0.78;;;;;;;17.14;62.80;99932.56;2060894;85;32005;-64
2022/05/21 04:24:09;;;;;;;2.05;0.70;;;;;;;17.12;62.95;99931.83;2049589;86;33685;-65
2022/05/21 04:27:11;;;;;;;0.80;0.70;;;;;;;17.10;62.90;99940.57;2014678;88;30107;-65
2022/05/21 04:30:25;;;;;;;1.65;1.00;;;;;;;17.11;63.01;99935.52;2076227;84;27672;-65
2022/05/21 04:33:28;;;;;;;7.58;0.95;;;;;;;17.13;62.97;99938.09;2097887;84;29789;-67
2022/05/21 04:36:31;;;;;;;3.72;1.00;;;;;;;17.33;62.85;99954.05;2047616;86;31111;-65
2022/05/21 04:39:33;;;;;;;3.98;0.78;;;;;;;18.33;63.00;99960.04;2079936;85;33800;-66
2022/05/21 04:42:38;;;;;;;2.42;0.72;;;;;;;19.85;61.39;99949.94;2014293;87;29339;-64
2022/05/21 04:45:40;;;;;;;5.05;0.95;;;;;;;21.36;60.40;99963.50;2063845;86;27696;-67
2022/05/21 04:48:44;;;;;;;4.50;1.12;;;;;;;22.65;57.36;99954.45;2063674;86;28645;-66
2022/05/21 04:51:46;;;;;;;1.80;0.80;;;;;;;23.91;55.59;99954.56;2091941;84;31033;-66
2022/05/21 04:54:48;;;;;;;0.90;0.62;;;;;;;25.02;54.96;99957.56;2098258;84;33756;-67
2022/05/21 04:57:51;;;;;;;2.62;0.82;;;;;;;25.92;52.58;99964.33;2082895;85;29448;-67
2022/05/21 05:00:54;;;;;;;2.62;1.15;;;;;;;26.78;51.24;99968.61;2069062;85;27673;-66
2022/05/21 05:03:57;;;;;;;3.72;1.07;;;;;;;27.65;50.09;99982.56;2049065;86;28825;-67
2022/05/21 05:06:59;;;;;;;1.65;0.80;;;;;;;28.38;48.39;99980.13;2049025;86;31198;-67
2022/05/21 05:10:06;;;;;;;3.37;0.98;;;;;;;28.95;47.38;99983.69;2052756;85;33827;-67
2022/05/21 05:13:08;;;;;;;1.40;0.95;;;;;;;29.46;44.43;99980.16;2082986;84;29295;-67
2022/05/21 05:16:10;;;;;;;1.90;0.70;;;;;;;29.76;43.54;99992.74;2083254;85;27757;-68
2022/05/21 05:19:12;;;;;;;1.00;0.80;;;;;;;30.03;42.24;100006.08;2083614;85;28656;-70
2022/05/21 05:22:14;;;;;;;2.05;0.60;;;;;;;30.21;42.10;99997.69;2083414;85;31004;-70
2022/05/21 05:25:16;;;;;;;11.30;0.88;;;;;;;30.64;41.47;100004.13;2083115;85;32910;-69
2022/05/21 05:28:22;;;;;;;3.12;0.90;;;;;;;30.71;39.02;99999.45;2083199;85;29327;-69
2022/05/21 05:31:24;;;;;;;1.55;0.80;;;;;;;30.67;38.96;100016.70;2083257;85;27707;-67
2022/05/21 05:34:26;;;;;;;4.45;0.88;;;;;;;30.52;38.15;100009.47;2083350;85;28686;-67
2022/05/21 05:37:29;;;;;;;2.02;0.90;;;;;;;30.22;37.66;100015.97;2083721;85;31025;-69
2022/05/21 05:40:33;;;;;;;0.98;0.75;;;;;;;29.70;36.91;100015.98;2083877;85;33049;-68
2022/05/21 05:43:36;;;;;;;0.60;0.60;;;;;;;29.59;36.36;100008.32;2083448;85;29333;-70
2022/05/21 05:46:39;;;;;;;1.75;0.85;;;;;;;29.50;36.31;100029.74;2083595;85;27688;-68
2022/05/21 05:49:41;;;;;;;1.95;0.68;;;;;;;29.34;35.80;100024.56;2083402;85;29604;-67
2022/05/21 05:52:43;;;;;;;3.08;0.80;;;;;;;29.44;35.78;100021.45;2083516;85;31018;-70
2022/05/21 05:55:45;;;;;;;4.12;0.85;;;;;;;29.46;35.70;100028.45;2083305;85;33006;-70
2022/05/21 06:05:32;;;;;;;4.42;1.05;;;;;;;29.62;33.79;100030.54;2049383;86;28707;-70
2022/05/21 06:08:35;;;;;;;10.68;0.95;;;;;;;29.55;34.08;100037.39;2049507;86;31856;-69
2022/05/21 06:11:38;;;;;;;4.15;1.15;;;;;;;29.75;33.60;100042.12;2049520;86;32962;-68
2022/05/21 06:14:40;;;;;;;2.22;0.90;;;;;;;29.65;33.35;100043.90;2076368;85;30611;-72
2022/05/21 06:17:42;;;;;;;1.52;0.70;;;;;;;29.43;33.53;100062.01;2083322;85;27824;-69
2022/05/21 06:20:45;;;;;;;2.58;1.00;;;;;;;29.25;32.77;100044.08;2083386;85;28646;-71
2022/05/21 06:23:47;;;;;;;1.87;0.95;;;;;;;29.21;33.30;100046.91;2085057;85;31863;-72
2022/05/21 06:26:49;;;;;;;4.22;0.90;;;;;;;29.61;32.71;100041.26;2087054;85;32937;-68
2022/05/21 06:29:51;;;;;;;1.65;0.80;;;;;;;30.08;32.46;100051.89;2087012;85;30119;-71
2022/05/21 06:32:54;;;;;;;5.70;1.20;;;;;;;30.25;32.48;100055.61;2061222;85;27698;-68
2022/05/21 06:36:12;;;;;;;6.08;0.75;;;;;;;30.47;31.81;100052.09;2083792;85;29573;-69
2022/05/21 06:39:14;;;;;;;2.70;0.90;;;;;;;30.58;31.08;100039.03;2082525;84;31681;-73
2022/05/21 06:42:21;;;;;;;0.90;0.60;;;;;;;30.48;30.88;100062.09;2083236;85;32573;-71
2022/05/21 06:45:24;;;;;;;4.95;0.90;;;;;;;29.65;30.43;100056.33;2083137;85;29358;-67
2022/05/21 06:48:26;;;;;;;3.72;0.80;;;;;;;28.61;30.99;100065.83;2083490;85;28283;-65
2022/05/21 06:51:28;;;;;;;2.25;0.85;;;;;;;27.67;31.64;100061.66;2083638;85;28607;-69
2022/05/21 06:54:30;;;;;;;2.35;0.93;;;;;;;27.19;31.86;100066.25;2085714;85;31029;-66
2022/05/21 06:57:32;;;;;;;2.77;1.15;;;;;;;26.63;32.10;100075.77;2086986;85;33736;-65
2022/05/21 07:00:35;;;;;;;1.47;1.15;;;;;;;26.88;33.28;100070.05;2087146;85;29337;-66
2022/05/21 07:03:37;;;;;;;1.07;0.72;;;;;;;27.34;32.73;100075.00;2085831;85;27712;-69
2022/05/21 07:10:07;;;;;;;1.20;0.80;;;;;;;26.18;32.85;100080.31;2083051;85;31064;-64
2022/05/21 07:13:10;;;;;;;1.95;0.95;;;;;;;25.33;33.65;100086.41;2084067;85;33758;-70
2022/05/21 07:16:13;;;;;;;4.17;0.95;;;;;;;25.27;34.12;100102.22;2086984;85;29515;-66
2022/05/21 07:19:15;;;;;;;4.90;1.22;;;;;;;25.83;34.23;100077.09;2087090;85;27735;-66
2022/05/21 07:22:18;;;;;;;3.33;0.88;;;;;;;26.43;34.01;100081.45;2087114;84;28748;-66
2022/05/21 07:25:24;;;;;;;2.12;0.70;;;;;;;26.95;33.96;100097.11;2086620;85;31048;-66
2022/05/21 07:28:26;;;;;;;2.45;1.00;;;;;;;27.63;33.17;100089.77;2087023;85;32958;-66
2022/05/21 07:31:29;;;;;;;7.62;1.10;;;;;;;27.52;32.54;100099.37;2087194;85;29316;-66
2022/05/21 07:34:31;;;;;;;2.47;0.90;;;;;;;27.30;32.64;100095.17;2087104;84;27552;-66
2022/05/21 07:37:33;;;;;;;1.40;0.82;;;;;;;26.69;32.80;100109.38;2086953;84;28611;-66
2022/05/21 07:40:38;;;;;;;4.25;0.88;;;;;;;26.40;32.88;100118.40;2087072;85;31638;-66
2022/05/21 07:43:41;;;;;;;3.10;0.70;;;;;;;26.13;32.93;100108.33;2087285;84;33684;-68
2022/05/21 07:46:43;;;;;;;2.58;0.93;;;;;;;26.28;33.72;100118.51;2087040;85;29986;-65
2022/05/21 07:49:46;;;;;;;2.12;1.80;;;;;;;26.21;33.42;100117.02;2087116;85;27617;-66
2022/05/21 07:52:49;;;;;;;2.10;1.10;;;;;;;25.88;33.63;100123.55;2087172;85;28622;-67
2022/05/21 07:55:55;;;;;;;2.08;1.02;;;;;;;25.48;33.81;100130.97;2087189;84;31741;-66
2022/05/21 07:58:58;;;;;;;4.80;1.20;;;;;;;25.17;34.03;100134.45;2087039;85;33753;-66
2022/05/21 08:02:00;;;;;;;1.77;1.40;;;;;;;25.46;34.03;100138.52;2087038;85;30016;-66
2022/05/21 08:05:03;;;;;;;2.15;0.90;;;;;;;25.24;34.01;100129.12;2087005;85;27824;-66
2022/05/21 08:08:07;;;;;;;5.22;0.82;;;;;;;25.18;34.21;100122.45;2086912;85;28696;-66
2022/05/21 08:11:10;;;;;;;3.42;0.80;;;;;;;25.32;34.46;100133.22;2087152;85;31000;-66
2022/05/21 08:14:13;;;;;;;2.45;1.20;;;;;;;25.14;34.22;100141.69;2086603;84;33052;-66
2022/05/21 08:17:15;;;;;;;5.15;0.80;;;;;;;25.02;34.61;100135.72;2086741;84;29374;-66
2022/05/21 08:20:18;;;;;;;2.08;1.17;;;;;;;25.15;34.31;100136.02;2087240;85;28232;-67
2022/05/21 08:26:59;;;;;;;4.65;0.90;;;;;;;24.93;34.47;100141.73;2086692;85;31060;-66
2022/05/21 08:29:59;;;;;;;0.88;0.72;;;;;;;24.63;34.53;100151.48;2085523;85;33095;-65
2022/05/21 08:33:07;;;;;;;5.75;0.90;;;;;;;24.28;34.33;100151.12;2087097;85;29966;-65
2022/05/21 08:36:09;;;;;;;5.28;1.10;;;;;;;24.28;34.76;100155.77;2087001;85;27637;-66
2022/05/21 08:39:12;;;;;;;1.05;0.78;;;;;;;24.79;34.69;100145.18;2071152;85;28647;-66
2022/05/21 08:42:28;;;;;;;1.70;0.72;;;;;;;25.23;34.32;100146.63;2086941;84;31002;-66
2022/05/21 08:45:44;;;;;;;0.78;0.78;;;;;;;25.38;34.14;100148.98;2087049;85;33849;-66
2022/05/21 08:48:55;;;;;;;3.77;1.07;;;;;;;25.20;33.80;100158.78;2084828;84;29407;-65
2022/05/21 08:52:20;;;;;;;1.80;0.85;;;;;;;24.70;34.00;100152.02;2087043;85;27678;-66
2022/05/21 08:55:42;;;;;;;6.10;1.37;;;;;;;24.33;34.09;100174.41;2084486;85;29571;-65
2022/05/21 08:58:52;;;;;;;7.60;1.00;;;;;;;23.97;34.77;100175.56;2086917;85;31023;-67
2022/05/21 09:02:02;;;;;;;4.78;0.95;;;;;;;23.73;35.23;100179.87;2087126;85;33012;-65
2022/05/21 09:05:21;;;;;;;2.33;0.93;;;;;;;23.79;35.26;100181.09;2086074;85;29341;-65
2022/05/21 09:09:14;;;;;;;1.80;1.05;;;;;;;24.03;34.90;100174.87;2086814;84;27747;-65
2022/05/21 09:12:24;;;;;;;3.80;0.62;;;;;;;24.37;34.82;100172.53;2086923;85;28692;-66
2022/05/21 09:18:50;;;;;;;3.83;1.17;;;;;;;24.65;34.25;100176.83;2083567;85;33733;-65
2022/05/21 09:22:06;;;;;;;4.05;1.02;;;;;;;24.68;34.23;100185.55;2083166;85;29315;-66
2022/05/21 09:25:26;;;;;;;0.85;0.80;;;;;;;24.65;34.52;100174.08;2083588;85;27669;-65
2022/05/21 09:28:29;;;;;;;2.42;1.20;;;;;;;24.48;34.82;100179.55;2083281;85;28388;-65
2022/05/21 09:31:32;;;;;;;2.52;0.80;;;;;;;24.48;34.46;100181.45;2083664;85;30605;-65
2022/05/21 09:34:36;;;;;;;1.13;0.83;;;;;;;24.39;34.63;100173.22;2083523;85;33763;-65
2022/05/21 09:37:40;;;;;;;2.30;0.80;;;;;;;24.36;34.35;100196.83;2082979;85;30184;-65
2022/05/21 09:40:42;;;;;;;1.47;0.90;;;;;;;24.07;34.30;100191.30;2083372;85;27722;-65
2022/05/21 09:47:36;;;;;;;2.65;0.88;;;;;;;24.03;34.70;100200.86;2083871;85;31067;-64
2022/05/21 09:50:49;;;;;;;1.45;1.00;;;;;;;24.23;34.26;100200.08;2083522;85;32951;-65
2022/05/21 09:53:51;;;;;;;2.15;1.00;;;;;;;24.16;34.53;100199.02;2083445;85;30126;-65
2022/05/21 09:56:57;;;;;;;4.50;0.70;;;;;;;24.04;34.19;100194.37;2083231;85;27646;-64
2022/05/21 10:00:32;;;;;;;2.90;0.90;;;;;;;24.12;34.90;100199.01;2083394;85;28686;-65
2022/05/21 10:03:53;;;;;;;3.25;1.10;;;;;;;24.25;34.43;100202.64;2083104;85;31071;-65
2022/05/21 10:10:58;;;;;;;2.65;0.95;;;;;;;24.17;34.22;100211.69;2083530;85;32986;-65
2022/05/21 10:14:02;;;;;;;3.25;1.40;;;;;;;23.89;34.67;100217.40;2083480;84;27719;-65
2022/05/21 10:17:18;;;;;;;2.72;0.90;;;;;;;23.99;34.38;100220.03;2081136;84;28615;-66
2022/05/21 10:20:28;;;;;;;3.42;0.90;;;;;;;24.03;34.14;100219.18;2083866;85;31977;-65
2022/05/21 10:23:45;;;;;;;4.37;1.30;;;;;;;23.65;33.88;100235.94;2084273;85;33633;-65
2022/05/21 10:27:19;;;;;;;6.20;0.88;;;;;;;23.38;34.08;100238.34;2082410;85;27692;-65
2022/05/21 10:30:33;;;;;;;3.77;0.95;;;;;;;23.23;34.51;100235.33;2082749;83;27641;-65
2022/05/21 10:34:03;;;;;;;8.30;1.20;;;;;;;23.30;34.73;100245.45;2083462;85;28283;-65
2022/05/21 10:37:48;;;;;;;6.12;1.17;;;;;;;23.48;34.82;100240.44;2083405;85;32185;-66
2022/05/21 10:41:06;;;;;;;2.92;0.90;;;;;;;23.60;34.83;100236.40;2083738;85;33833;-66
2022/05/21 10:44:42;;;;;;;1.75;1.12;;;;;;;23.67;34.87;100232.00;2083480;85;29328;-65
2022/05/21 10:48:08;;;;;;;2.87;0.93;;;;;;;23.82;34.76;100239.59;2083369;85;27849;-66
2022/05/21 10:51:34;;;;;;;2.70;0.90;;;;;;;23.97;34.11;100223.45;2082883;85;28657;-65
2022/05/21 10:54:53;;;;;;;2.25;0.62;;;;;;;23.97;34.03;100243.97;2083283;85;31138;-66
2022/05/21 10:58:20;;;;;;;5.10;0.88;;;;;;;23.82;33.76;100228.15;2083114;85;28901;-65
2022/05/21 11:01:42;;;;;;;2.47;1.02;;;;;;;23.69;33.97;100224.98;2083797;84;29316;-66
2022/05/21 11:05:13;;;;;;;6.12;1.25;;;;;;;23.53;34.17;100233.98;2082888;85;27608;-65
2022/05/21 11:08:48;;;;;;;2.37;1.10;;;;;;;23.27;33.83;100225.80;2082896;85;28780;-66
2022/05/21 11:12:10;;;;;;;2.37;0.80;;;;;;;23.13;33.98;100234.91;2083656;85;31186;-65
2022/05/21 11:15:35;;;;;;;3.50;0.98;;;;;;;23.20;34.72;100243.32;2084900;84;32956;-65
2022/05/21 11:18:52;;;;;;;1.87;0.93;;;;;;;23.34;34.18;100232.31;2032169;86;29348;-66
2022/05/21 11:22:08;;;;;;;2.27;0.90;;;;;;;23.21;33.77;100236.34;2010610;87;27774;-65
2022/05/21 11:25:27;;;;;;;2.65;1.00;;;;;;;23.15;34.06;100231.51;2022905;87;28652;-66
2022/05/21 11:28:40;;;;;;;2.62;0.90;;;;;;;23.26;33.98;100235.02;2015488;88;31903;-65
2022/05/21 11:39:01;;;;;;;1.70;0.70;;;;;;;23.42;33.70;100241.95;2032476;87;27726;-67
2022/05/21 11:42:16;;;;;;;5.47;0.70;;;;;;;23.46;33.58;100244.72;2032253;87;28679;-68
2022/05/21 11:45:26;;;;;;;4.25;0.88;;;;;;;23.52;33.67;100248.15;2024529;87;31089;-68
2022/05/21 11:48:30;;;;;;;1.35;0.75;;;;;;;23.45;33.45;100248.47;2015350;88;33200;-67
2022/05/21 11:51:34;;;;;;;4.37;1.02;;;;;;;23.41;33.67;100247.07;2015436;88;29397;-68
2022/05/21 11:54:57;;;;;;;2.10;0.80;;;;;;;23.52;33.78;100246.78;2030127;85;27791;-66
2022/05/21 11:58:05;;;;;;;2.15;0.98;;;;;;;23.58;33.72;100242.53;2086570;85;29739;-66
2022/05/21 12:01:08;;;;;;;2.08;0.78;;;;;;;23.54;33.69;100245.27;2087164;84;31622;-66
2022/05/21 12:04:40;;;;;;;2.52;0.80;;;;;;;23.42;33.52;100243.32;2086821;85;32973;-66
2022/05/21 12:07:48;;;;;;;1.52;0.95;;;;;;;23.32;33.53;100234.38;2086925;85;29331;-66
2022/05/21 12:11:06;;;;;;;1.40;0.80;;;;;;;23.30;33.39;100237.78;2087112;85;27748;-66
2022/05/21 12:14:19;;;;;;;3.60;0.90;;;;;;;23.28;33.60;100236.56;2086997;85;29390;-65
2022/05/21 12:17:54;;;;;;;2.22;1.00;;;;;;;23.49;33.63;100245.77;2086604;85;31071;-66
2022/05/21 12:20:56;;;;;;;1.25;0.80;;;;;;;23.75;32.71;100240.75;2012022;87;33004;-66
2022/05/21 12:24:28;;;;;;;3.42;0.90;;;;;;;23.89;32.86;100240.66;2012123;88;29353;-66
2022/05/21 12:27:30;;;;;;;2.67;1.00;;;;;;;23.96;33.01;100244.46;2009296;88;27652;-66
2022/05/21 12:30:32;;;;;;;2.90;0.90;;;;;;;23.85;32.64;100252.94;2011833;88;29406;-66
2022/05/21 12:33:52;;;;;;;3.22;1.17;;;;;;;23.81;32.82;100248.81;2011606;88;31054;-66
2022/05/21 12:37:46;;;;;;;3.35;1.10;;;;;;;23.71;32.77;100257.14;2011492;88;33384;-66
2022/05/21 12:41:10;;;;;;;2.02;1.10;;;;;;;23.55;33.01;100254.31;1996032;88;29371;-66
2022/05/21 12:44:12;;;;;;;2.87;0.78;;;;;;;23.51;33.18;100260.11;2010021;87;27877;-66
2022/05/21 12:47:36;;;;;;;1.02;0.70;;;;;;;23.42;33.04;100260.22;1970266;88;28850;-66
2022/05/21 12:50:52;;;;;;;4.53;1.27;;;;;;;23.33;33.20;100251.98;2011824;88;31810;-66
2022/05/21 12:53:55;;;;;;;2.17;1.00;;;;;;;23.26;33.31;100244.06;2026907;85;32972;-66
2022/05/21 12:56:59;;;;;;;2.95;0.85;;;;;;;23.32;33.22;100258.98;2086975;84;29329;-66
2022/05/21 13:00:06;;;;;;;1.10;0.78;;;;;;;23.14;33.30;100263.08;2040024;85;27774;-66
2022/05/21 13:03:11;;;;;;;3.30;1.07;;;;;;;23.01;33.47;100260.75;2086863;85;28626;-67
2022/05/21 13:06:17;;;;;;;1.07;0.93;;;;;;;22.92;33.75;100258.45;2086721;85;30851;-66
2022/05/21 13:09:20;;;;;;;3.83;1.07;;;;;;;22.72;33.58;100257.29;2086847;84;33857;-65
2022/05/21 13:12:23;;;;;;;2.58;0.82;;;;;;;22.51;33.90;100261.67;2086873;85;29341;-66
2022/05/21 13:15:36;;;;;;;2.27;0.80;;;;;;;22.38;33.99;100263.89;2086036;84;27625;-66
2022/05/21 13:19:28;;;;;;;2.98;1.05;;;;;;;22.37;34.22;100264.91;2071248;84;28889;-66
2022/05/21 13:22:58;;;;;;;3.58;1.10;;;;;;;22.37;34.18;100264.42;2079582;84;30911;-66
2022/05/21 13:26:02;;;;;;;2.08;1.05;;;;;;;22.53;34.48;100254.19;2050864;85;32999;-68
2022/05/21 13:29:28;;;;;;;1.37;1.27;;;;;;;22.83;34.69;100250.73;2049118;86;29361;-65
2022/05/21 13:32:32;;;;;;;7.62;1.10;;;;;;;23.13;34.30;100239.50;2055495;85;27585;-65
2022/05/21 13:35:36;;;;;;;;;;;;;;;23.36;34.20;100246.69;2070698;85;28679;-67
2022/05/21 13:38:40;;;;;;;3.20;1.05;;;;;;;23.33;34.06;100247.03;2119474;84;31018;-63
2022/05/21 13:41:44;;;;;;;1.12;0.93;;;;;;;23.31;34.21;100248.55;2119914;84;33761;-62
2022/05/21 13:44:49;;;;;;;2.03;1.17;;;;;;;23.29;34.19;100243.74;2120117;84;29359;-63
2022/05/21 13:48:02;;;;;;;4.25;1.37;;;;;;;23.16;33.95;100253.72;2094641;84;27622;-65
2022/05/21 13:51:04;;;;;;;3.60;1.00;;;;;;;22.98;34.00;100248.80;2045274;85;29524;-64
2022/05/21 13:54:06;;;;;;;1.62;0.98;;;;;;;22.79;34.31;100252.05;2046303;87;31875;-64
2022/05/21 13:57:30;;;;;;;3.95;1.10;;;;;;;22.65;34.45;100238.44;2067050;85;33028;-65
2022/05/21 14:00:34;;;;;;;1.82;1.07;;;;;;;22.66;34.67;100234.69;2080062;84;30113;-65
2022/05/21 14:03:46;;;;;;;1.50;0.80;;;;;;;22.73;34.55;100239.02;2040564;84;27795;-66
2022/05/21 14:06:48;;;;;;;4.00;1.10;;;;;;;22.73;34.78;100228.97;2085365;84;28664;-67
2022/05/21 14:09:58;;;;;;;2.75;1.00;;;;;;;22.67;34.94;100227.37;2047275;85;31853;-67
2022/05/21 14:13:05;;;;;;;3.67;1.30;;;;;;;22.58;34.99;100231.91;2046237;85;33081;-67
2022/05/21 14:16:09;;;;;;;3.70;0.70;;;;;;;22.53;35.17;100224.67;2062901;83;29354;-67
2022/05/21 14:19:23;;;;;;;3.72;0.80;;;;;;;22.48;35.11;100221.06;2082430;83;27762;-66
2022/05/21 14:22:25;;;;;;;4.55;0.80;;;;;;;22.53;35.16;100221.95;2084773;83;28766;-64
2022/05/21 14:25:37;;;;;;;2.47;0.80;;;;;;;22.56;35.29;100225.22;2083631;83;31811;-65
2022/05/21 14:28:39;;;;;;;2.72;0.82;;;;;;;22.50;34.99;100211.33;2085456;83;32957;-66
2022/05/21 14:31:41;;;;;;;3.60;1.50;;;;;;;22.41;34.85;100199.45;2084227;83;29544;-67
2022/05/21 14:34:45;;;;;;;1.47;0.90;;;;;;;22.36;34.88;100199.05;2084569;83;27745;-68
2022/05/21 14:37:53;;;;;;;1.80;0.90;;;;;;;22.44;35.37;100204.11;2085217;83;29347;-69
2022/05/21 14:40:58;;;;;;;1.52;0.70;;;;;;;22.49;35.34;100199.57;2084397;83;31168;-72
2022/05/21 14:44:06;;;;;;;2.60;1.15;;;;;;;22.45;35.19;100205.83;2074301;83;32965;-76
2022/05/21 14:53:58;;;;;;;6.03;0.95;;;;;;;22.25;34.70;100198.80;2084727;83;28697;-71
2022/05/21 14:57:01;;;;;;;2.98;0.98;;;;;;;22.08;34.79;100202.72;2073781;84;31094;-69
2022/05/21 15:00:05;;;;;;;5.47;1.40;;;;;;;21.91;34.83;100204.91;2085141;84;33088;-67
2022/05/21 15:03:09;;;;;;;2.75;1.00;;;;;;;21.73;34.87;100215.26;2087133;83;33745;-68
2022/05/21 15:06:12;;;;;;;3.92;1.32;;;;;;;21.50;34.84;100212.88;2127338;82;28153;-73
2022/05/21 15:09:15;;;;;;;4.00;0.93;;;;;;;21.38;35.13;100223.62;2127880;82;28658;-74
2022/05/21 15:12:18;;;;;;;1.50;0.93;;;;;;;21.22;35.31;100217.41;2128238;82;31011;-73
2022/05/21 15:15:24;;;;;;;2.50;1.07;;;;;;;21.07;35.46;100223.33;2127920;82;32990;-68
2022/05/21 15:18:27;;;;;;;3.00;0.90;;;;;;;20.87;35.70;100220.27;2125706;82;29379;-72
2022/05/21 15:21:32;;;;;;;4.15;1.37;;;;;;;20.74;36.29;100225.49;2125290;82;27761;-67